Time;durP1;ratioP1;P1;durP2;ratioP2;P2;SDS_P1;SDS_P2;PMS_P1;PMS_P2;Temp;Humidity;BMP_temperature;BMP_pressure;BME280_temperature;BME280_humidity;BME280_pressure;Samples;Min_cycle;Max_cycle;Signal;HPM_P1;HPM_P2
2022/01/16 00:01:03;;;;;;;57.33;19.70;;;;;;;-145.69;100.00;73739.19;5135456;27;20208;-79
2022/01/16 00:06:16;;;;;;;53.97;19.23;;;;;;;-145.69;100.00;73771.03;5135680;27;20196;-78
2022/01/16 00:08:42;;;;;;;56.97;19.33;;;;;;;-145.69;100.00;73794.94;5135809;27;20192;-78
2022/01/16 00:11:11;;;;;;;52.20;19.80;;;;;;;-145.69;100.00;73800.91;5136020;27;20207;-79
2022/01/16 00:13:38;;;;;;;56.17;20.10;;;;;;;-145.69;100.00;73775.00;5135749;27;20197;-79
2022/01/16 00:16:04;;;;;;;64.43;21.83;;;;;;;-145.69;100.00;73765.06;5135753;27;20197;-79
2022/01/16 00:18:41;;;;;;;59.23;22.10;;;;;;;-145.69;100.00;73759.09;5134878;27;20224;-78
2022/01/16 00:21:08;;;;;;;58.97;21.53;;;;;;;-145.69;100.00;73747.13;5135477;27;20596;-78
2022/01/16 00:23:34;;;;;;;62.03;21.00;;;;;;;-145.69;100.00;73739.19;5135320;27;20196;-79
2022/01/16 00:26:01;;;;;;;58.10;21.93;;;;;;;-145.69;100.00;73715.28;5135534;27;20201;-78
2022/01/16 00:28:29;;;;;;;55.83;21.60;;;;;;;-145.69;100.00;73737.19;5135304;27;20205;-79
2022/01/16 00:30:55;;;;;;;55.63;20.10;;;;;;;-145.69;100.00;73759.09;5135403;27;20201;-78
2022/01/16 00:33:22;;;;;;;52.37;20.93;;;;;;;-145.69;100.00;73759.09;5134872;27;20674;-78
2022/01/16 00:35:48;;;;;;;57.43;19.70;;;;;;;-145.69;100.00;73749.13;5135156;27;20228;-79
2022/01/16 00:38:15;;;;;;;56.13;20.40;;;;;;;-145.69;100.00;73731.22;5134913;27;20220;-79
2022/01/16 00:40:42;;;;;;;58.90;19.70;;;;;;;-145.69;100.00;73759.09;5135219;27;20205;-79
2022/01/16 00:43:08;;;;;;;46.50;16.83;;;;;;;-145.69;100.00;73773.03;5134852;27;20232;-79
2022/01/16 00:45:36;;;;;;;44.80;18.03;;;;;;;-145.69;100.00;73779.00;5134720;27;20203;-79
2022/01/16 00:48:04;;;;;;;47.70;19.17;;;;;;;-145.69;100.00;73784.97;5134991;27;20201;-79
2022/01/16 00:50:32;;;;;;;64.60;21.17;;;;;;;-145.69;100.00;73763.06;5134319;27;20204;-79
2022/01/16 00:52:59;;;;;;;52.77;20.30;;;;;;;-145.69;100.00;73765.06;5135175;27;20196;-79
2022/01/16 00:55:25;;;;;;;50.53;19.40;;;;;;;-145.69;100.00;73743.16;5134952;27;20192;-79
2022/01/16 00:57:52;;;;;;;50.13;19.13;;;;;;;-145.69;100.00;73759.09;5134669;27;20225;-79
2022/01/16 01:00:18;;;;;;;56.33;19.63;;;;;;;-145.69;100.00;73743.16;5134451;27;20197;-79
2022/01/16 01:02:47;;;;;;;71.20;21.57;;;;;;;-145.69;100.00;73755.09;5134909;27;20193;-79
2022/01/16 01:05:14;;;;;;;54.03;20.33;;;;;;;-145.69;100.00;73755.09;5134627;27;20201;-79
2022/01/16 01:07:40;;;;;;;50.13;19.27;;;;;;;-145.69;100.00;73759.09;5134783;27;20254;-79
2022/01/16 01:10:08;;;;;;;58.63;20.93;;;;;;;-145.69;100.00;73755.09;5134324;27;20196;-79
2022/01/16 01:12:51;;;;;;;58.57;21.17;;;;;;;-145.69;100.00;73767.06;5134591;27;20197;-79
2022/01/16 01:15:18;;;;;;;57.67;19.27;;;;;;;-145.69;100.00;73755.09;5134329;27;20188;-79
2022/01/16 01:17:46;;;;;;;53.53;19.03;;;;;;;-145.69;100.00;73745.16;5134315;27;20679;-79
2022/01/16 01:20:18;;;;;;;52.67;19.33;;;;;;;-145.69;100.00;73717.28;5134224;27;20192;-80
2022/01/16 01:22:46;;;;;;;57.00;20.60;;;;;;;-145.69;100.00;73689.41;5134291;27;20724;-79
2022/01/16 01:25:19;;;;;;;60.50;20.07;;;;;;;-145.69;100.00;73679.44;5134104;27;20201;-79
2022/01/16 01:27:47;;;;;;;57.47;19.73;;;;;;;-145.69;100.00;73695.38;5133987;27;20669;-79
2022/01/16 01:30:15;;;;;;;59.20;20.47;;;;;;;-145.69;100.00;73725.25;5134353;27;20201;-79
2022/01/16 01:32:43;;;;;;;49.43;19.00;;;;;;;-145.69;100.00;73739.19;5134009;27;20197;-78
2022/01/16 01:35:12;;;;;;;47.47;18.90;;;;;;;-145.69;100.00;73763.06;5134112;27;20243;-79
2022/01/16 01:37:41;;;;;;;52.37;19.47;;;;;;;-145.69;100.00;73779.00;5133720;27;20235;-78
2022/01/16 01:40:09;;;;;;;56.17;19.67;;;;;;;-145.69;100.00;73779.00;5133845;27;20235;-79
2022/01/16 01:42:44;;;;;;;51.57;19.43;;;;;;;-145.69;100.00;73769.03;5133984;27;20203;-79
2022/01/16 01:53:26;;;;;;;57.23;20.17;;;;;;;-145.69;100.00;73729.22;5113251;28;20527;-79
2022/01/16 01:55:53;;;;;;;62.63;20.23;;;;;;;-145.69;100.00;73731.22;5113225;27;20205;-79
2022/01/16 01:58:20;;;;;;;59.37;20.43;;;;;;;-145.69;100.00;73743.16;5133569;27;20223;-79
2022/01/16 02:00:47;;;;;;;47.53;18.63;;;;;;;-145.69;100.00;73798.91;5133691;27;20204;-79
2022/01/16 02:03:19;;;;;;;45.90;17.73;;;;;;;-145.69;100.00;73818.81;5133751;28;20197;-79
2022/01/16 02:05:46;;;;;;;48.70;18.00;;;;;;;-145.69;100.00;73804.88;5118613;27;20266;-79
2022/01/16 02:08:13;;;;;;;56.83;20.50;;;;;;;-145.69;100.00;73769.03;5128136;28;20200;-79
2022/01/16 02:10:42;;;;;;;39.57;14.30;;;;;;;-145.69;100.00;73769.03;5133542;28;20200;-79
2022/01/16 02:13:17;;;;;;;42.43;16.43;;;;;;;-145.69;100.00;73757.09;5133112;28;20678;-79
2022/01/16 02:30:33;;;;;;;42.07;15.47;;;;;;;-145.69;100.00;73846.69;5115100;28;20250;-79
2022/01/16 02:33:10;;;;;;;47.17;15.50;;;;;;;-145.69;100.00;73802.88;5115042;28;20229;-79
2022/01/16 02:35:36;;;;;;;48.87;16.63;;;;;;;-145.69;100.00;73792.94;5133048;27;20287;-78
2022/01/16 02:38:04;;;;;;;40.97;14.33;;;;;;;-145.69;100.00;73767.06;5137555;27;20688;-79
2022/01/16 02:40:32;;;;;;;37.10;14.03;;;;;;;-145.69;100.00;73784.97;5138038;27;20735;-80
2022/01/16 02:42:59;;;;;;;39.23;14.83;;;;;;;-145.69;100.00;73790.94;5138122;27;20193;-79
2022/01/16 02:45:30;;;;;;;36.60;13.90;;;;;;;-145.69;100.00;73806.88;5137562;27;20193;-79
2022/01/16 02:47:59;;;;;;;37.70;13.67;;;;;;;-145.69;100.00;73826.78;5137679;27;20197;-79
2022/01/16 02:50:26;;;;;;;35.97;13.83;;;;;;;-145.69;100.00;73826.78;5137567;27;20202;-79
2022/01/16 02:52:52;;;;;;;32.87;12.07;;;;;;;-145.69;100.00;73860.63;5137698;27;20232;-79
2022/01/16 02:55:21;;;;;;;26.10;11.03;;;;;;;-145.69;100.00;73832.75;5137838;27;20200;-79
2022/01/16 02:57:49;;;;;;;21.07;9.07;;;;;;;-145.69;100.00;73836.75;5137675;27;20292;-80
2022/01/16 03:00:17;;;;;;;23.70;9.03;;;;;;;-145.69;100.00;73802.88;5137240;27;20224;-79
2022/01/16 03:02:44;;;;;;;27.43;10.70;;;;;;;-145.69;100.00;73798.91;5137298;27;20208;-79
2022/01/16 03:05:13;;;;;;;28.17;10.03;;;;;;;-145.69;100.00;73763.06;5137147;27;20223;-79
2022/01/16 03:07:40;;;;;;;29.77;11.23;;;;;;;-145.69;100.00;73747.13;5137336;27;20608;-79
2022/01/16 03:10:46;;;;;;;38.53;12.30;;;;;;;-145.69;100.00;73749.13;5137214;27;20215;-79
2022/01/16 03:13:14;;;;;;;30.97;11.77;;;;;;;-145.69;100.00;73737.19;5137187;27;20598;-79
2022/01/16 03:15:41;;;;;;;31.50;11.50;;;;;;;-145.69;100.00;73729.22;5136563;27;20196;-78
2022/01/16 03:23:43;;;;;;;26.33;9.50;;;;;;;-145.69;100.00;73719.25;5136704;27;20204;-79
2022/01/16 03:26:10;;;;;;;23.90;9.63;;;;;;;-145.69;100.00;73719.25;5136656;27;20201;-79
2022/01/16 03:28:37;;;;;;;21.73;8.70;;;;;;;-145.69;100.00;73705.34;5137103;27;20244;-79
2022/01/16 03:31:04;;;;;;;24.07;8.63;;;;;;;-145.69;100.00;73695.38;5136864;27;20291;-79
2022/01/16 03:33:31;;;;;;;28.67;9.63;;;;;;;-145.69;100.00;73725.25;5136064;27;20566;-79
2022/01/16 03:35:57;;;;;;;23.07;9.20;;;;;;;-145.69;100.00;73737.19;5135949;27;20240;-79
2022/01/16 03:38:24;;;;;;;24.23;7.53;;;;;;;-145.69;100.00;73727.22;5136195;27;20687;-79
2022/01/16 03:40:53;;;;;;;20.40;7.40;;;;;;;-145.69;100.00;73739.19;5136155;27;20611;-78
2022/01/16 03:43:20;;;;;;;21.53;7.60;;;;;;;-145.69;100.00;73719.25;5136411;27;20264;-78
2022/01/16 03:45:48;;;;;;;17.83;7.90;;;;;;;-145.69;100.00;73723.25;5136302;27;20197;-78
2022/01/16 03:48:16;;;;;;;21.53;7.93;;;;;;;-145.69;100.00;73689.41;5136246;27;20213;-78
2022/01/16 03:50:43;;;;;;;17.33;7.53;;;;;;;-145.69;100.00;73675.47;5136235;27;20554;-78
2022/01/16 03:53:10;;;;;;;15.57;6.50;;;;;;;-145.69;100.00;73697.38;5136006;27;20197;-78
2022/01/16 03:55:37;;;;;;;20.20;7.53;;;;;;;-145.69;100.00;73709.31;5134278;27;20597;-78
2022/01/16 03:58:04;;;;;;;15.00;6.30;;;;;;;-145.69;100.00;73709.31;5115743;28;20591;-78
2022/01/16 04:00:30;;;;;;;17.07;7.37;;;;;;;-145.69;100.00;73703.34;5115543;28;20248;-78
2022/01/16 04:02:59;;;;;;;18.33;6.83;;;;;;;-145.69;100.00;73719.25;5115683;28;20197;-78
2022/01/16 04:05:26;;;;;;;14.00;5.80;;;;;;;-145.69;100.00;73731.22;5115648;27;20220;-78
2022/01/16 04:07:54;;;;;;;15.70;6.17;;;;;;;-145.69;100.00;73705.34;5115165;28;20206;-78
2022/01/16 04:10:23;;;;;;;17.80;7.13;;;;;;;-145.69;100.00;73711.31;5115216;28;20209;-77
2022/01/16 04:12:50;;;;;;;17.07;6.83;;;;;;;-145.69;100.00;73717.28;5115369;28;20541;-78
2022/01/16 04:15:35;;;;;;;16.10;6.43;;;;;;;-145.69;100.00;73715.28;5124717;27;20189;-78
2022/01/16 04:18:07;;;;;;;13.63;6.03;;;;;;;-145.69;100.00;73743.16;5135360;27;20192;-78
2022/01/16 04:20:34;;;;;;;16.77;6.10;;;;;;;-145.69;100.00;73761.06;5135474;27;20690;-78
2022/01/16 04:23:02;;;;;;;14.97;6.00;;;;;;;-145.69;100.00;73767.06;5135775;27;20204;-78
2022/01/16 04:25:28;;;;;;;16.53;5.97;;;;;;;-145.69;100.00;73763.06;5135686;27;20201;-78
2022/01/16 04:27:55;;;;;;;13.73;6.00;;;;;;;-145.69;100.00;73771.03;5135538;27;20211;-78
2022/01/16 04:30:22;;;;;;;12.63;5.70;;;;;;;-145.69;100.00;73802.88;5135279;27;20605;-78
2022/01/16 04:32:49;;;;;;;13.43;5.67;;;;;;;-145.69;100.00;73802.88;5135272;27;20196;-78
2022/01/16 04:35:17;;;;;;;16.07;6.07;;;;;;;-145.69;100.00;73775.00;5135173;27;20724;-78
2022/01/16 04:37:43;;;;;;;14.60;6.37;;;;;;;-145.69;100.00;73779.00;5135260;27;20224;-78
2022/01/16 04:40:11;;;;;;;15.47;6.07;;;;;;;-145.69;100.00;73767.06;5135238;27;20732;-78
2022/01/16 04:45:22;;;;;;;15.57;5.83;;;;;;;-145.69;100.00;73779.00;5134478;27;20208;-78
2022/01/16 04:47:50;;;;;;;12.50;5.10;;;;;;;-145.69;100.00;73794.94;5135209;27;20201;-78
2022/01/16 04:50:20;;;;;;;13.97;5.90;;;;;;;-145.69;100.00;73806.88;5134942;27;20197;-78
2022/01/16 04:52:46;;;;;;;8.77;4.53;;;;;;;-145.69;100.00;73784.97;5135429;27;20201;-78
2022/01/16 04:55:18;;;;;;;12.70;5.10;;;;;;;-145.69;100.00;73784.97;5134924;27;20200;-78
2022/01/16 04:57:45;;;;;;;10.40;4.53;;;;;;;-145.69;100.00;73781.00;5134466;27;20197;-78
2022/01/16 05:00:14;;;;;;;10.20;4.83;;;;;;;-145.69;100.00;73790.94;5134655;27;20224;-79
2022/01/16 05:02:41;;;;;;;13.43;4.80;;;;;;;-145.69;100.00;73818.81;5134975;27;20203;-78
2022/01/16 05:05:11;;;;;;;12.63;4.23;;;;;;;-145.69;100.00;73838.72;5134841;27;20193;-79
2022/01/16 05:07:41;;;;;;;10.43;4.83;;;;;;;-145.69;100.00;73868.59;5134833;27;20275;-79
2022/01/16 05:10:09;;;;;;;10.10;4.17;;;;;;;-145.69;100.00;73858.63;5134255;27;20205;-78
2022/01/16 05:12:40;;;;;;;9.23;4.70;;;;;;;-145.69;100.00;73880.53;5133545;27;20920;-78
2022/01/16 05:17:51;;;;;;;9.63;4.00;;;;;;;-145.69;100.00;73878.56;5134391;27;20803;-78
2022/01/16 05:20:18;;;;;;;11.67;4.20;;;;;;;-145.69;100.00;73822.81;5134468;27;20319;-79
2022/01/16 05:22:46;;;;;;;8.33;4.23;;;;;;;-145.69;100.00;73802.88;5134838;27;20197;-79
2022/01/16 05:25:16;;;;;;;10.70;4.50;;;;;;;-145.69;100.00;73818.81;5134300;27;20197;-79
2022/01/16 05:27:43;;;;;;;10.23;4.70;;;;;;;-145.69;100.00;73834.75;5134207;27;20200;-78
2022/01/16 05:30:15;;;;;;;7.73;3.80;;;;;;;-145.69;100.00;73838.72;5134486;27;20200;-79
2022/01/16 05:32:44;;;;;;;9.27;3.83;;;;;;;-145.69;100.00;73846.69;5134410;27;20555;-79
2022/01/16 05:35:11;;;;;;;8.63;3.90;;;;;;;-145.69;100.00;73858.63;5133800;27;20209;-78
2022/01/16 05:37:38;;;;;;;5.27;2.97;;;;;;;-145.69;100.00;73876.56;5133959;27;20229;-79
2022/01/16 05:40:07;;;;;;;8.47;3.70;;;;;;;-145.69;100.00;73870.59;5134014;27;20235;-78
2022/01/16 05:42:33;;;;;;;7.17;3.20;;;;;;;-145.69;100.00;73862.63;5134191;27;20291;-78
2022/01/16 05:45:00;;;;;;;10.60;4.10;;;;;;;-145.69;100.00;73862.63;5133778;27;20193;-78
2022/01/16 05:47:27;;;;;;;8.47;4.17;;;;;;;-145.69;100.00;73852.66;5134064;27;20601;-78
2022/01/16 05:49:53;;;;;;;11.77;4.00;;;;;;;-145.69;100.00;73840.72;5133682;27;20738;-79
2022/01/16 05:52:19;;;;;;;8.00;3.83;;;;;;;-145.69;100.00;73860.63;5133573;27;20203;-78
2022/01/16 05:54:46;;;;;;;10.67;4.10;;;;;;;-145.69;100.00;73852.66;5133234;27;20205;-79
2022/01/16 05:57:14;;;;;;;8.07;3.63;;;;;;;-145.69;100.00;73850.69;5114855;27;20198;-78
2022/01/16 05:59:40;;;;;;;7.90;3.80;;;;;;;-145.69;100.00;73868.59;5113053;28;20326;-78
2022/01/16 06:02:07;;;;;;;10.73;3.40;;;;;;;-145.69;100.00;73884.53;5113063;28;20202;-78
2022/01/16 06:04:33;;;;;;;10.30;4.10;;;;;;;-145.69;100.00;73936.28;5112727;28;20201;-79
2022/01/16 06:07:00;;;;;;;6.77;3.30;;;;;;;-145.69;100.00;73948.25;5113330;28;20224;-78
2022/01/16 06:09:27;;;;;;;7.70;3.20;;;;;;;-145.69;100.00;74002.00;5112968;28;20193;-78
2022/01/16 06:11:55;;;;;;;10.27;3.60;;;;;;;-145.69;100.00;74019.91;5113159;28;20209;-79
2022/01/16 06:14:23;;;;;;;11.90;4.47;;;;;;;-145.69;100.00;74029.88;5120316;28;20696;-78
2022/01/16 06:16:53;;;;;;;23.13;8.60;;;;;;;-145.69;100.00;74023.91;5133349;27;20204;-78
2022/01/16 06:19:20;;;;;;;31.10;10.97;;;;;;;-145.69;100.00;74023.91;5133611;27;20197;-78
2022/01/16 06:21:47;;;;;;;32.47;12.17;;;;;;;-145.69;100.00;74039.84;5133826;27;20200;-78
2022/01/16 06:24:14;;;;;;;34.60;12.60;;;;;;;-145.69;100.00;74053.78;5133604;27;20200;-78
2022/01/16 06:26:41;;;;;;;36.20;13.37;;;;;;;-145.69;100.00;74073.69;5133668;27;20201;-78
2022/01/16 06:29:07;;;;;;;36.70;12.80;;;;;;;-145.69;100.00;74097.56;5133213;27;20249;-78
2022/01/16 06:31:35;;;;;;;32.20;11.40;;;;;;;-145.69;100.00;74105.53;5133498;27;20245;-79
2022/01/16 06:34:04;;;;;;;32.17;12.73;;;;;;;-145.69;100.00;74127.44;5133603;27;20227;-78
2022/01/16 06:36:31;;;;;;;33.17;12.27;;;;;;;-145.69;100.00;74157.31;5133191;27;20568;-78
2022/01/16 06:38:58;;;;;;;30.70;12.20;;;;;;;-145.69;100.00;74161.28;5133362;27;20197;-78
2022/01/16 06:41:26;;;;;;;29.83;11.57;;;;;;;-145.69;100.00;74169.25;5133285;27;20741;-78
2022/01/16 06:43:58;;;;;;;33.20;12.30;;;;;;;-145.69;100.00;74165.28;5133055;27;20272;-78
2022/01/16 06:46:25;;;;;;;33.17;12.50;;;;;;;-145.69;100.00;74187.19;5133099;28;20666;-78
2022/01/16 06:48:52;;;;;;;29.63;11.40;;;;;;;-145.69;100.00;74193.16;5133339;27;20205;-78
2022/01/16 06:51:20;;;;;;;33.63;11.33;;;;;;;-145.69;100.00;74205.09;5133468;28;20208;-78
2022/01/16 06:53:46;;;;;;;26.90;10.20;;;;;;;-145.69;100.00;74221.03;5133238;27;20690;-78
2022/01/16 06:56:13;;;;;;;26.47;10.50;;;;;;;-145.69;100.00;74189.19;5132963;27;20631;-78
2022/01/16 06:58:39;;;;;;;31.17;10.63;;;;;;;-145.69;100.00;74195.16;5133001;28;20621;-78
2022/01/16 07:01:06;;;;;;;29.77;11.43;;;;;;;-145.69;100.00;74199.13;5133338;28;20220;-78
2022/01/16 07:03:32;;;;;;;30.40;11.13;;;;;;;-145.69;100.00;74199.13;5132935;28;20193;-78
2022/01/16 07:06:00;;;;;;;27.20;11.70;;;;;;;-145.69;100.00;74183.19;5132815;27;20453;-78
2022/01/16 07:08:27;;;;;;;29.90;10.23;;;;;;;-145.69;100.00;74187.19;5133734;27;20193;-78
2022/01/16 07:10:55;;;;;;;27.50;10.30;;;;;;;-145.69;100.00;74185.19;5136893;27;20201;-78
2022/01/16 07:13:22;;;;;;;33.07;12.50;;;;;;;-145.69;100.00;74163.28;5136774;27;20207;-77
2022/01/16 07:15:51;;;;;;;24.17;9.97;;;;;;;-145.69;100.00;74169.25;5136811;27;20196;-78
2022/01/16 07:18:18;;;;;;;22.33;8.03;;;;;;;-145.69;100.00;74157.31;5136848;27;20211;-78
2022/01/16 07:20:45;;;;;;;21.33;8.00;;;;;;;-145.69;100.00;74157.31;5136788;27;20228;-78
2022/01/16 07:23:14;;;;;;;17.40;6.63;;;;;;;-145.69;100.00;74165.28;5136771;27;20229;-78
2022/01/16 07:25:41;;;;;;;15.97;6.43;;;;;;;-145.69;100.00;74187.19;5136508;27;20212;-79
2022/01/16 07:28:09;;;;;;;17.63;6.73;;;;;;;-145.69;100.00;74165.28;5136894;27;20193;-79
2022/01/16 07:30:37;;;;;;;14.13;6.20;;;;;;;-145.69;100.00;74169.25;5136499;27;20212;-79
2022/01/16 07:33:04;;;;;;;18.20;6.17;;;;;;;-145.69;100.00;74159.31;5136248;27;20201;-79
2022/01/16 07:35:31;;;;;;;20.33;6.53;;;;;;;-145.69;100.00;74121.47;5136319;27;20204;-79
2022/01/16 07:37:57;;;;;;;13.57;6.10;;;;;;;-145.69;100.00;74129.44;5136337;27;20203;-79
2022/01/16 07:40:26;;;;;;;17.77;5.80;;;;;;;-145.69;100.00;74125.44;5136138;27;20273;-79
2022/01/16 07:42:53;;;;;;;10.77;4.90;;;;;;;-145.69;100.00;74141.38;5136351;27;20201;-79
2022/01/16 07:45:19;;;;;;;10.93;4.30;;;;;;;-145.69;100.00;74121.47;5136398;27;20288;-79
2022/01/16 07:47:46;;;;;;;11.60;4.83;;;;;;;-145.69;100.00;74115.50;5136255;27;20200;-79
2022/01/16 07:50:14;;;;;;;12.67;5.33;;;;;;;-145.69;100.00;74075.69;5136140;27;20203;-79
2022/01/16 07:52:40;;;;;;;13.20;5.27;;;;;;;-145.69;100.00;74085.63;5136099;27;20662;-79
2022/01/16 07:55:07;;;;;;;13.03;5.17;;;;;;;-145.69;100.00;74073.69;5132785;27;20204;-79
2022/01/16 07:57:35;;;;;;;13.27;6.23;;;;;;;-145.69;100.00;74077.66;5115581;28;20213;-79
2022/01/16 08:00:02;;;;;;;21.60;7.77;;;;;;;-145.69;100.00;74059.75;5115409;28;20229;-79
2022/01/16 08:02:33;;;;;;;17.37;6.30;;;;;;;-145.69;100.00;74061.72;5115440;28;20193;-79
2022/01/16 08:05:00;;;;;;;18.13;6.80;;;;;;;-145.69;100.00;74045.81;5134899;27;20208;-78
2022/01/16 08:07:26;;;;;;;16.33;6.73;;;;;;;-145.69;100.00;74005.97;5135839;27;20197;-79
2022/01/16 08:09:53;;;;;;;15.60;6.83;;;;;;;-145.69;100.00;73982.09;5135637;27;20669;-81
2022/01/16 08:12:19;;;;;;;15.33;7.27;;;;;;;-145.69;100.00;73988.06;5135975;27;20247;-78
2022/01/16 08:14:47;;;;;;;13.70;5.73;;;;;;;-145.69;100.00;73960.19;5135795;27;20207;-78
2022/01/16 08:17:13;;;;;;;19.00;7.70;;;;;;;-145.69;100.00;73970.16;5135694;27;20609;-78
2022/01/16 08:19:40;;;;;;;13.23;5.27;;;;;;;-145.69;100.00;73998.03;5135359;27;20197;-78
2022/01/16 08:22:07;;;;;;;10.60;5.07;;;;;;;-145.69;100.00;74009.97;5134966;27;20225;-78
2022/01/16 08:24:33;;;;;;;12.80;5.33;;;;;;;-145.69;100.00;74017.94;5135592;27;20283;-78
2022/01/16 08:27:04;;;;;;;21.50;8.17;;;;;;;-145.69;100.00;74009.97;5135606;27;20224;-78
2022/01/16 08:29:32;;;;;;;12.43;5.67;;;;;;;-145.69;100.00;74013.94;5135491;27;20199;-78
2022/01/16 08:32:00;;;;;;;11.40;5.63;;;;;;;-145.69;100.00;74007.97;5135330;27;20240;-79
2022/01/16 08:34:26;;;;;;;13.77;6.07;;;;;;;-145.69;100.00;73974.13;5134790;27;20189;-79
2022/01/16 08:36:53;;;;;;;11.67;5.80;;;;;;;-145.69;100.00;73944.25;5135180;27;20254;-78
2022/01/16 08:39:19;;;;;;;14.43;4.67;;;;;;;-145.69;100.00;73958.19;5135278;27;20280;-79
2022/01/16 08:41:46;;;;;;;14.13;5.37;;;;;;;-145.69;100.00;73972.13;5135168;27;20232;-79
2022/01/16 08:44:12;;;;;;;11.93;5.53;;;;;;;-145.69;100.00;73982.09;5135318;27;20221;-79
2022/01/16 08:46:39;;;;;;;10.80;5.33;;;;;;;-145.69;100.00;73992.03;5135267;27;20204;-78
2022/01/16 08:49:07;;;;;;;12.37;5.40;;;;;;;-145.69;100.00;73986.06;5134974;27;20208;-82
2022/01/16 08:51:36;;;;;;;13.60;5.60;;;;;;;-145.69;100.00;73982.09;5135548;27;20201;-78
2022/01/16 08:54:06;;;;;;;17.80;6.43;;;;;;;-145.69;100.00;73972.13;5135149;27;20197;-78
2022/01/16 08:56:32;;;;;;;12.80;6.40;;;;;;;-145.69;100.00;73960.19;5135294;27;20398;-78
2022/01/16 08:58:59;;;;;;;14.87;6.33;;;;;;;-145.69;100.00;73942.25;5134722;27;20204;-78
2022/01/16 09:01:26;;;;;;;17.23;6.70;;;;;;;-145.69;100.00;73936.28;5134681;27;20224;-78
2022/01/16 09:03:52;;;;;;;17.30;6.57;;;;;;;-145.69;100.00;73926.34;5134983;27;20729;-78
2022/01/16 09:06:21;;;;;;;18.77;7.33;;;;;;;-145.69;100.00;73908.41;5134806;27;20667;-78
2022/01/16 09:08:48;;;;;;;20.53;9.33;;;;;;;-145.69;100.00;73902.44;5134883;27;20197;-79
2022/01/16 09:11:14;;;;;;;23.20;9.83;;;;;;;-145.69;100.00;73906.44;5134649;27;20204;-78
2022/01/16 09:13:41;;;;;;;26.57;11.30;;;;;;;-145.69;100.00;73922.34;5134508;27;20200;-79
2022/01/16 09:16:08;;;;;;;26.77;11.90;;;;;;;-145.69;100.00;73942.25;5134365;27;20203;-78
2022/01/16 09:18:35;;;;;;;24.10;8.30;;;;;;;-145.69;100.00;73944.25;5134728;27;20197;-79
2022/01/16 09:21:01;;;;;;;22.13;8.87;;;;;;;-145.69;100.00;73936.28;5134850;27;20625;-79
2022/01/16 09:23:31;;;;;;;20.07;8.50;;;;;;;-145.69;100.00;73940.28;5134804;27;20196;-79
2022/01/16 09:25:58;;;;;;;21.37;8.80;;;;;;;-145.69;100.00;73930.31;5134787;27;20200;-79
2022/01/16 09:28:24;;;;;;;21.70;8.67;;;;;;;-145.69;100.00;73918.38;5134571;27;20196;-79
2022/01/16 09:30:52;;;;;;;26.10;11.30;;;;;;;-145.69;100.00;73920.38;5134491;27;20212;-80
2022/01/16 09:33:19;;;;;;;25.60;11.87;;;;;;;-145.69;100.00;73918.38;5133753;27;20201;-80
2022/01/16 09:35:45;;;;;;;27.13;11.10;;;;;;;-145.69;100.00;73918.38;5134500;27;20606;-80
2022/01/16 09:38:12;;;;;;;33.13;13.00;;;;;;;-145.69;100.00;73908.41;5134576;27;20258;-80
2022/01/16 09:40:45;;;;;;;31.60;13.17;;;;;;;-145.69;100.00;73918.38;5134407;27;20598;-81
2022/01/16 09:43:12;;;;;;;29.80;12.50;;;;;;;-145.69;100.00;73914.38;5134339;27;20270;-80
2022/01/16 09:45:38;;;;;;;31.57;12.07;;;;;;;-145.69;100.00;73910.41;5134474;27;20197;-80
2022/01/16 09:48:06;;;;;;;24.77;11.50;;;;;;;-145.69;100.00;73906.44;5134383;27;20208;-81
2022/01/16 09:50:32;;;;;;;26.27;10.87;;;;;;;-145.69;100.00;73906.44;5134527;27;20220;-81
2022/01/16 09:53:00;;;;;;;25.03;12.47;;;;;;;-145.69;100.00;73874.56;5132995;27;20199;-81
2022/01/16 09:55:27;;;;;;;24.67;11.20;;;;;;;-145.69;100.00;73874.56;5114574;28;20353;-81
2022/01/16 09:57:57;;;;;;;22.90;10.37;;;;;;;-145.69;100.00;73872.56;5117440;27;20275;-81
2022/01/16 10:00:25;;;;;;;25.07;11.23;;;;;;;-145.69;100.00;73866.59;5134161;27;20192;-81
2022/01/16 10:02:53;;;;;;;28.90;11.70;;;;;;;-145.69;100.00;73858.63;5134173;27;20200;-82
2022/01/16 10:05:30;;;;;;;32.47;12.87;;;;;;;-145.69;100.00;73834.75;5134359;27;20196;-82
2022/01/16 10:08:01;;;;;;;28.17;13.47;;;;;;;-145.69;100.00;73824.78;5134362;27;20211;-82
2022/01/16 10:10:30;;;;;;;33.57;14.00;;;;;;;-145.69;100.00;73816.81;5134139;27;20210;-82
2022/01/16 10:13:05;;;;;;;32.53;13.53;;;;;;;-145.69;100.00;73806.88;5134135;27;20200;-82
2022/01/16 10:15:32;;;;;;;29.90;13.97;;;;;;;-145.69;100.00;73802.88;5134153;27;20291;-83
2022/01/16 10:18:01;;;;;;;31.47;13.83;;;;;;;-145.69;100.00;73781.00;5133926;27;20556;-79
2022/01/16 10:20:30;;;;;;;35.43;14.37;;;;;;;-145.69;100.00;73767.06;5135381;27;20231;-81
2022/01/16 10:23:00;;;;;;;33.27;14.37;;;;;;;-145.69;100.00;73743.16;5138106;27;20241;-81
2022/01/16 10:25:38;;;;;;;35.60;15.63;;;;;;;-145.69;100.00;73713.28;5136084;27;20200;-81
2022/01/16 10:28:15;;;;;;;30.33;12.87;;;;;;;-145.69;100.00;73671.47;5141561;27;20195;-81
2022/01/16 10:30:44;;;;;;;31.93;13.53;;;;;;;-145.69;100.00;73659.53;5146913;28;20176;-82
2022/01/16 10:33:12;;;;;;;35.73;12.63;;;;;;;-145.69;100.00;73625.69;5148088;28;20208;-82
2022/01/16 10:35:40;;;;;;;30.43;13.87;;;;;;;-145.69;100.00;73615.72;5146224;27;20197;-82
2022/01/16 10:38:11;;;;;;;37.20;14.07;;;;;;;-145.69;100.00;73611.75;5146481;28;20200;-82
2022/01/16 10:40:40;;;;;;;33.30;13.43;;;;;;;-145.69;100.00;73607.78;5144794;27;20205;-82
2022/01/16 10:43:15;;;;;;;32.30;13.87;;;;;;;-145.69;100.00;73603.78;5144084;27;20243;-82
2022/01/16 10:45:43;;;;;;;38.27;14.87;;;;;;;-145.69;100.00;73579.91;5148696;27;20305;-82
2022/01/16 10:48:11;;;;;;;37.07;14.60;;;;;;;-145.69;100.00;73585.88;5142078;27;20205;-83
2022/01/16 10:50:40;;;;;;;35.30;14.20;;;;;;;-145.69;100.00;73567.94;5137967;27;20208;-82
2022/01/16 10:53:08;;;;;;;38.53;14.40;;;;;;;-145.69;100.00;73565.97;5136867;27;20202;-81
2022/01/16 10:55:38;;;;;;;33.43;14.00;;;;;;;-145.69;100.00;73567.94;5131485;27;20279;-81
2022/01/16 10:58:08;;;;;;;31.10;14.10;;;;;;;-145.69;100.00;73575.91;5135494;27;20288;-80
2022/01/16 11:00:35;;;;;;;35.57;14.60;;;;;;;-145.69;100.00;73571.94;5137516;27;20208;-81
2022/01/16 11:03:04;;;;;;;37.77;15.50;;;;;;;-145.69;100.00;73561.97;5137869;27;20207;-79
2022/01/16 11:05:35;;;;;;;38.70;14.97;;;;;;;-145.69;100.00;73567.94;5137478;27;20295;-82
2022/01/16 11:08:04;;;;;;;34.33;15.27;;;;;;;-145.69;100.00;73571.94;5139412;27;20209;-84
2022/01/16 11:10:33;;;;;;;34.90;14.40;;;;;;;-145.69;100.00;73552.03;5142626;27;20200;-84
2022/01/16 11:13:02;;;;;;;36.97;14.17;;;;;;;-145.69;100.00;73548.03;5139366;27;20567;-84
2022/01/16 11:15:31;;;;;;;40.97;14.87;;;;;;;-145.69;100.00;73556.00;5138448;27;20207;-84
2022/01/16 11:17:58;;;;;;;35.17;15.90;;;;;;;-145.69;100.00;73540.06;5139211;27;20208;-84
2022/01/16 11:20:29;;;;;;;34.00;15.47;;;;;;;-145.69;100.00;73544.06;5138122;27;20209;-84
2022/01/16 11:22:59;;;;;;;34.93;14.73;;;;;;;-145.69;100.00;73532.13;5138002;27;20691;-84
2022/01/16 11:25:33;;;;;;;40.60;15.87;;;;;;;-145.69;100.00;73508.22;5137790;27;20288;-84
2022/01/16 11:28:01;;;;;;;41.33;16.90;;;;;;;-145.69;100.00;73484.34;5137836;27;20206;-83
2022/01/16 11:30:31;;;;;;;39.63;15.67;;;;;;;-145.69;100.00;73444.50;5137400;27;20205;-84
2022/01/16 11:32:58;;;;;;;33.43;14.13;;;;;;;-145.69;100.00;73398.72;5137565;27;20685;-83
2022/01/16 11:35:25;;;;;;;36.47;13.87;;;;;;;-145.69;99.23;73350.94;5138604;27;20221;-83
2022/01/16 11:37:52;;;;;;;30.70;12.90;;;;;;;-145.69;96.74;73297.19;5138874;27;20200;-83